createdAt,value
2017-11-04T00:00:12.310Z,1006.8
2017-11-04T00:00:38.466Z,1006.78
2017-11-04T00:01:04.604Z,1006.82
2017-11-04T00:01:30.755Z,1006.8
2017-11-04T00:01:56.899Z,1006.79
2017-11-04T00:02:23.074Z,1006.8
2017-11-04T00:02:49.218Z,1006.74
2017-11-04T00:03:15.358Z,1006.7
2017-11-04T00:03:41.501Z,1006.75
2017-11-04T00:04:07.651Z,1006.77
2017-11-04T00:04:33.800Z,1006.72
2017-11-04T00:04:59.945Z,1006.73
2017-11-04T00:05:26.087Z,1006.76
2017-11-04T00:05:52.234Z,1006.73
2017-11-04T00:06:18.381Z,1006.76
2017-11-04T00:06:44.525Z,1006.76
2017-11-04T00:07:10.674Z,1006.76
2017-11-04T00:07:36.810Z,1006.77
2017-11-04T00:08:02.965Z,1006.76
2017-11-04T02:26:45.014Z,1005.34
2017-11-04T02:27:11.566Z,1005.31
2017-11-04T02:27:37.606Z,1005.32
2017-11-04T02:28:03.729Z,1005.27
2017-11-04T02:28:29.848Z,1005.26
2017-11-04T02:28:55.963Z,1005.25
2017-11-04T02:29:22.085Z,1005.25
2017-11-04T02:29:48.208Z,1005.24
2017-11-04T02:30:14.327Z,1005.26
2017-11-04T02:30:40.448Z,1005.21
2017-11-04T02:31:06.558Z,1005.23
2017-11-04T02:31:32.676Z,1005.22
2017-11-04T02:31:58.806Z,1005.21
2017-11-04T02:32:24.923Z,1005.18
2017-11-04T02:32:51.038Z,1005.2
2017-11-04T02:33:17.155Z,1005.18
2017-11-04T02:33:43.277Z,1005.17
2017-11-04T02:34:09.396Z,1005.19
2017-11-04T02:34:35.520Z,1005.18
2017-11-04T02:35:01.634Z,1005.16
2017-11-04T02:35:27.761Z,1005.18
2017-11-04T02:35:53.879Z,1005.16
2017-11-04T02:36:20.000Z,1005.16
2017-11-04T02:36:46.116Z,1005.14
2017-11-04T02:37:12.241Z,1005.15
2017-11-04T02:37:38.359Z,1005.14
2017-11-04T02:38:04.477Z,1005.14
2017-11-04T02:38:30.598Z,1005.13
2017-11-04T02:38:56.722Z,1005.13
2017-11-04T02:39:22.841Z,1005.14
2017-11-04T02:39:48.960Z,1005.16
2017-11-04T02:40:15.076Z,1005.18
2017-11-04T02:40:41.221Z,1005.15
2017-11-04T02:41:07.337Z,1005.14
2017-11-04T02:41:33.461Z,1005.14
2017-11-04T02:41:59.577Z,1005.12
2017-11-04T02:42:25.695Z,1005.15
2017-11-04T02:42:51.819Z,1005.14
2017-11-04T02:43:17.933Z,1005.13
2017-11-04T02:43:44.051Z,1005.13
2017-11-04T02:44:10.462Z,1005.09
2017-11-04T02:44:36.582Z,1005.1
2017-11-04T02:45:02.706Z,1005.08
2017-11-04T02:45:28.825Z,1005.08
2017-11-04T02:45:54.950Z,1005.11
2017-11-04T02:46:21.062Z,1005.07
2017-11-04T02:46:47.200Z,1005.09
2017-11-04T02:47:13.322Z,1005.05
2017-11-04T02:47:39.437Z,1005.04
2017-11-04T02:48:05.563Z,1005.07
2017-11-04T02:48:31.675Z,1005.05
2017-11-04T02:48:57.789Z,1005.05
2017-11-04T02:49:23.908Z,1005.07
2017-11-04T02:49:50.030Z,1005.09
2017-11-04T02:50:16.149Z,1005.03
2017-11-04T02:50:42.287Z,1005.06
2017-11-04T02:51:08.412Z,1005.06
2017-11-04T02:51:34.531Z,1005.07
2017-11-04T02:52:00.657Z,1005.06
2017-11-04T02:52:26.770Z,1005.1
2017-11-04T02:52:52.890Z,1005.04
2017-11-04T02:53:19.026Z,1005.04
2017-11-04T02:53:45.151Z,1005.07
2017-11-04T02:54:11.275Z,1005.09
2017-11-04T02:54:37.396Z,1005.05
2017-11-04T02:55:03.517Z,1005.04
2017-11-04T02:55:29.653Z,1005.06
2017-11-04T02:55:55.766Z,1005.05
2017-11-04T02:56:21.893Z,1005.03
2017-11-04T02:56:48.008Z,1005.09
2017-11-04T02:57:14.137Z,1005.06
2017-11-04T02:57:40.254Z,1005.04
2017-11-04T02:58:06.410Z,1005.03
2017-11-04T02:58:32.551Z,1005.04
2017-11-04T02:58:58.661Z,1005.02
2017-11-04T02:59:24.785Z,1005.01
2017-11-04T02:59:50.904Z,1005.04
2017-11-04T03:00:17.019Z,1005
2017-11-04T03:00:43.140Z,1005
2017-11-04T03:01:09.259Z,1004.99
2017-11-04T03:01:35.378Z,1005.01
2017-11-04T03:02:01.808Z,1005.01
2017-11-04T03:02:28.530Z,1004.98
2017-11-04T03:02:54.647Z,1004.99
2017-11-04T03:03:20.772Z,1005.02
2017-11-04T03:03:46.895Z,1005
2017-11-04T03:04:13.017Z,1005.01
2017-11-04T03:04:39.133Z,1005
2017-11-04T03:05:05.249Z,1005.02
2017-11-04T03:05:31.367Z,1004.98
2017-11-04T03:05:57.487Z,1004.98
2017-11-04T03:06:23.604Z,1005.01
2017-11-04T03:06:49.729Z,1005.02
2017-11-04T03:07:15.843Z,1004.99
2017-11-04T03:07:41.962Z,1005.03
2017-11-04T03:08:08.084Z,1005.03
2017-11-04T03:08:34.198Z,1005.03
2017-11-04T03:09:00.321Z,1005.03
2017-11-04T03:09:26.436Z,1004.98
2017-11-04T03:09:52.555Z,1005
2017-11-04T03:10:18.674Z,1004.99
2017-11-04T03:10:44.792Z,1004.95
2017-11-04T03:11:10.917Z,1004.99
2017-11-04T03:11:37.039Z,1004.96
2017-11-04T03:12:03.154Z,1004.94
2017-11-04T03:12:29.282Z,1004.94
2017-11-04T03:12:55.405Z,1004.94
2017-11-04T03:13:21.527Z,1004.95
2017-11-04T03:13:47.640Z,1004.91
2017-11-04T03:14:13.764Z,1004.89
2017-11-04T03:14:39.874Z,1004.92
2017-11-04T03:15:05.996Z,1004.92
2017-11-04T03:15:32.131Z,1004.92
2017-11-04T03:15:58.238Z,1004.91
2017-11-04T03:16:24.348Z,1004.93
2017-11-04T03:16:50.466Z,1004.93
2017-11-04T03:17:16.593Z,1004.92
2017-11-04T03:17:44.565Z,1004.88
2017-11-04T03:18:10.688Z,1004.95
2017-11-04T03:18:36.809Z,1004.9
2017-11-04T03:19:02.920Z,1004.91
2017-11-04T03:19:29.045Z,1004.92
2017-11-04T03:19:55.161Z,1004.92
2017-11-04T03:20:21.276Z,1004.88
2017-11-04T03:20:47.396Z,1004.85
2017-11-04T03:21:13.512Z,1004.91
2017-11-04T03:21:39.640Z,1004.89
2017-11-04T03:22:05.760Z,1004.9
2017-11-04T03:22:31.884Z,1004.86
2017-11-04T03:22:58.011Z,1004.9
2017-11-04T03:23:24.125Z,1004.86
2017-11-04T03:23:50.246Z,1004.85
2017-11-04T03:24:16.364Z,1004.84
2017-11-04T03:24:42.485Z,1004.84
2017-11-04T03:25:08.601Z,1004.84
2017-11-04T03:25:34.718Z,1004.86
2017-11-04T03:26:00.843Z,1004.82
2017-11-04T03:26:26.957Z,1004.84
2017-11-04T03:26:53.080Z,1004.78
2017-11-04T03:27:19.199Z,1004.8
2017-11-04T03:27:45.323Z,1004.8
2017-11-04T03:28:11.465Z,1004.79
2017-11-04T03:28:37.557Z,1004.77
2017-11-04T03:29:03.702Z,1004.77
2017-11-04T03:29:29.816Z,1004.75
2017-11-04T03:29:55.935Z,1004.73
2017-11-04T03:30:22.064Z,1004.78
2017-11-04T03:30:48.174Z,1004.78
2017-11-04T03:31:14.297Z,1004.76
2017-11-04T03:31:40.410Z,1004.76
2017-11-04T03:32:06.530Z,1004.76
2017-11-04T03:32:32.654Z,1004.79
2017-11-04T03:32:58.768Z,1004.78
2017-11-04T03:33:24.892Z,1004.78
2017-11-04T03:33:51.009Z,1004.79
2017-11-04T03:34:17.132Z,1004.72
2017-11-04T03:34:43.267Z,1004.78
2017-11-04T03:35:09.382Z,1004.79
2017-11-04T03:35:35.504Z,1004.74
2017-11-04T03:36:01.625Z,1004.75
2017-11-04T03:36:27.763Z,1004.73
2017-11-04T03:36:54.293Z,1004.75
2017-11-04T03:37:20.413Z,1004.73
2017-11-04T03:37:46.541Z,1004.73
2017-11-04T03:38:12.678Z,1004.78
2017-11-04T03:38:38.806Z,1004.78
2017-11-04T03:39:04.918Z,1004.75
2017-11-04T03:39:31.035Z,1004.73
2017-11-04T03:39:57.162Z,1004.75
2017-11-04T03:40:23.296Z,1004.75
2017-11-04T03:40:49.414Z,1004.75
2017-11-04T03:41:15.525Z,1004.75
2017-11-04T03:41:41.647Z,1004.75
2017-11-04T03:42:07.770Z,1004.76
2017-11-04T03:42:33.891Z,1004.73
2017-11-04T03:43:00.018Z,1004.75
2017-11-04T03:43:26.172Z,1004.72
2017-11-04T03:43:52.274Z,1004.74
2017-11-04T03:44:18.393Z,1004.75
2017-11-04T03:44:44.510Z,1004.73
2017-11-04T03:45:10.634Z,1004.74
2017-11-04T03:45:36.764Z,1004.75
2017-11-04T03:46:02.884Z,1004.75
2017-11-04T03:46:30.033Z,1004.76
2017-11-04T03:46:56.447Z,1004.75
2017-11-04T03:47:22.566Z,1004.72
2017-11-04T03:47:48.704Z,1004.7
2017-11-04T03:48:14.822Z,1004.7
2017-11-04T03:48:40.942Z,1004.71
2017-11-04T03:49:07.060Z,1004.67
2017-11-04T03:49:33.201Z,1004.67
2017-11-04T03:49:59.315Z,1004.68
2017-11-04T03:50:25.441Z,1004.67
2017-11-04T03:50:51.562Z,1004.65
2017-11-04T03:51:17.697Z,1004.65
2017-11-04T03:51:43.823Z,1004.59
2017-11-04T03:52:09.944Z,1004.62
2017-11-04T03:52:36.059Z,1004.59
2017-11-04T03:53:02.182Z,1004.64
2017-11-04T03:53:28.303Z,1004.64
2017-11-04T03:53:54.419Z,1004.65
2017-11-04T03:54:20.541Z,1004.67
2017-11-04T03:54:46.660Z,1004.62
2017-11-04T03:55:12.774Z,1004.67
2017-11-04T03:55:38.895Z,1004.64
2017-11-04T03:56:05.013Z,1004.65
2017-11-04T03:56:31.138Z,1004.65
2017-11-04T03:56:57.261Z,1004.65
2017-11-04T03:57:23.376Z,1004.66
2017-11-04T03:57:49.522Z,1004.67
2017-11-04T03:58:15.635Z,1004.68
2017-11-04T03:58:41.752Z,1004.69
2017-11-04T03:59:07.877Z,1004.65
2017-11-04T03:59:33.993Z,1004.68
2017-11-04T04:00:00.119Z,1004.66
2017-11-04T04:00:26.264Z,1004.65
2017-11-04T04:00:52.376Z,1004.64
2017-11-04T04:01:18.498Z,1004.64
2017-11-04T04:01:44.611Z,1004.64
2017-11-04T04:02:10.735Z,1004.65
2017-11-04T04:02:36.854Z,1004.61
2017-11-04T04:03:02.968Z,1004.61
2017-11-04T04:03:29.165Z,1004.61
2017-11-04T04:03:55.226Z,1004.62
2017-11-04T04:04:21.359Z,1004.61
2017-11-04T04:04:47.475Z,1004.62
2017-11-04T04:05:13.598Z,1004.62
2017-11-04T04:05:39.713Z,1004.59
2017-11-04T04:06:05.838Z,1004.65
2017-11-04T04:06:31.955Z,1004.6
2017-11-04T04:06:58.079Z,1004.64
2017-11-04T04:07:24.199Z,1004.62
2017-11-04T04:07:50.320Z,1004.6
2017-11-04T04:08:16.431Z,1004.63
2017-11-04T04:08:42.936Z,1004.62
2017-11-04T04:09:09.051Z,1004.61
2017-11-04T04:09:35.164Z,1004.59
2017-11-04T04:10:01.291Z,1004.61
2017-11-04T04:10:27.412Z,1004.61
2017-11-04T04:10:53.536Z,1004.62
2017-11-04T04:11:19.713Z,1004.6
2017-11-04T04:11:45.863Z,1004.57
2017-11-04T04:12:11.976Z,1004.59
2017-11-04T04:12:38.091Z,1004.56
2017-11-04T04:13:04.211Z,1004.58
2017-11-04T04:13:30.333Z,1004.57
2017-11-04T04:13:56.451Z,1004.57
2017-11-04T04:14:22.568Z,1004.56
2017-11-04T04:14:48.701Z,1004.57
2017-11-04T04:15:14.786Z,1004.56
2017-11-04T04:15:40.912Z,1004.53
2017-11-04T04:16:07.033Z,1004.52
2017-11-04T04:16:33.154Z,1004.52
2017-11-04T04:16:59.274Z,1004.56
2017-11-04T04:17:25.454Z,1004.52
2017-11-04T04:17:51.526Z,1004.5
2017-11-04T04:18:17.641Z,1004.52
2017-11-04T04:18:43.758Z,1004.49
2017-11-04T04:19:09.882Z,1004.49
2017-11-04T04:19:35.995Z,1004.48
2017-11-04T04:20:02.287Z,1004.5
2017-11-04T04:20:28.407Z,1004.52
2017-11-04T04:20:54.527Z,1004.45
2017-11-04T04:21:20.650Z,1004.47
2017-11-04T04:21:46.765Z,1004.47
2017-11-04T04:22:12.884Z,1004.45
2017-11-04T04:22:39.007Z,1004.47
2017-11-04T04:23:05.126Z,1004.46
2017-11-04T04:23:31.265Z,1004.46
2017-11-04T04:23:57.375Z,1004.49
2017-11-04T04:24:23.502Z,1004.5
2017-11-04T04:24:49.621Z,1004.46
2017-11-04T04:25:15.723Z,1004.5
2017-11-04T04:25:41.842Z,1004.48
2017-11-04T04:26:07.967Z,1004.5
2017-11-04T04:26:34.088Z,1004.51
2017-11-04T04:27:00.201Z,1004.49
2017-11-04T04:27:26.317Z,1004.49
2017-11-04T04:27:52.513Z,1004.5
2017-11-04T04:28:18.629Z,1004.49
2017-11-04T04:28:44.742Z,1004.47
2017-11-04T04:29:10.860Z,1004.5
2017-11-04T04:29:36.984Z,1004.47
2017-11-04T04:30:03.105Z,1004.53
2017-11-04T04:30:29.243Z,1004.49
2017-11-04T04:30:55.349Z,1004.45
2017-11-04T04:31:21.491Z,1004.44
2017-11-04T04:31:47.604Z,1004.46
2017-11-04T04:32:13.733Z,1004.43
2017-11-04T04:32:39.854Z,1004.42
2017-11-04T04:33:05.966Z,1004.44
2017-11-04T04:33:32.095Z,1004.42
2017-11-04T04:33:58.257Z,1004.43
2017-11-04T04:34:24.369Z,1004.42
2017-11-04T04:34:50.526Z,1004.39
2017-11-04T04:35:16.611Z,1004.41
2017-11-04T04:35:42.732Z,1004.41
2017-11-04T04:36:08.850Z,1004.38
2017-11-04T04:36:34.971Z,1004.4
2017-11-04T04:37:01.087Z,1004.41
2017-11-04T04:37:27.207Z,1004.36
2017-11-04T04:37:53.326Z,1004.38
2017-11-04T04:38:19.448Z,1004.39
2017-11-04T04:38:45.560Z,1004.38
2017-11-04T04:39:11.689Z,1004.42
2017-11-04T04:39:37.803Z,1004.38
2017-11-04T04:40:03.912Z,1004.38
2017-11-04T04:40:30.035Z,1004.41
2017-11-04T04:40:56.169Z,1004.4
2017-11-04T04:41:22.311Z,1004.38
2017-11-04T04:41:48.430Z,1004.42
2017-11-04T04:42:14.556Z,1004.37
2017-11-04T04:42:40.672Z,1004.36
2017-11-04T04:43:06.790Z,1004.34
2017-11-04T04:43:32.914Z,1004.37
2017-11-04T04:43:59.027Z,1004.36
2017-11-04T04:44:25.146Z,1004.34
2017-11-04T04:44:51.264Z,1004.36
2017-11-04T04:45:17.389Z,1004.34
2017-11-04T04:45:43.510Z,1004.33
2017-11-04T04:46:09.623Z,1004.34
2017-11-04T04:46:35.764Z,1004.36
2017-11-04T04:47:01.878Z,1004.36
2017-11-04T04:47:28.002Z,1004.29
2017-11-04T04:47:54.122Z,1004.34
2017-11-04T04:48:20.238Z,1004.34
2017-11-04T04:48:46.361Z,1004.3
2017-11-04T04:49:12.480Z,1004.29
2017-11-04T04:49:38.595Z,1004.28
2017-11-04T04:50:04.714Z,1004.28
2017-11-04T04:50:30.837Z,1004.32
2017-11-04T04:50:56.947Z,1004.27
2017-11-04T04:51:23.066Z,1004.26
2017-11-04T04:51:49.185Z,1004.26
2017-11-04T04:52:15.311Z,1004.25
2017-11-04T04:52:41.426Z,1004.25
2017-11-04T04:53:07.540Z,1004.24
2017-11-04T04:53:33.656Z,1004.22
2017-11-04T04:53:59.781Z,1004.23
2017-11-04T04:54:25.904Z,1004.25
2017-11-04T04:54:52.022Z,1004.26
2017-11-04T04:55:18.156Z,1004.27
2017-11-04T04:55:44.279Z,1004.27
2017-11-04T04:56:10.405Z,1004.24
2017-11-04T04:56:36.523Z,1004.26
2017-11-04T04:57:02.640Z,1004.27
2017-11-04T04:57:28.761Z,1004.28
2017-11-04T04:57:54.872Z,1004.28
2017-11-04T04:58:20.995Z,1004.26
2017-11-04T04:58:47.108Z,1004.25
2017-11-04T04:59:13.228Z,1004.3
2017-11-04T04:59:39.356Z,1004.24
2017-11-04T05:00:05.502Z,1004.28
2017-11-04T05:00:31.618Z,1004.27
2017-11-04T05:00:57.738Z,1004.25
2017-11-04T05:01:23.851Z,1004.27
2017-11-04T05:01:49.978Z,1004.28
2017-11-04T05:02:16.100Z,1004.23
2017-11-04T05:02:42.219Z,1004.25
2017-11-04T05:03:08.337Z,1004.27
2017-11-04T05:03:34.450Z,1004.27
2017-11-04T05:04:00.574Z,1004.26
2017-11-04T05:04:26.712Z,1004.26
2017-11-04T05:04:52.827Z,1004.25
2017-11-04T05:05:18.951Z,1004.26
2017-11-04T05:05:45.068Z,1004.27
2017-11-04T05:06:11.189Z,1004.27
2017-11-04T05:06:37.312Z,1004.19
2017-11-04T05:07:03.452Z,1004.2
2017-11-04T05:07:29.566Z,1004.19
2017-11-04T05:07:55.742Z,1004.15
2017-11-04T05:08:21.861Z,1004.12
2017-11-04T05:08:47.981Z,1004.1
2017-11-04T05:09:14.096Z,1004.08
2017-11-04T05:09:40.223Z,1004.03
2017-11-04T05:10:06.341Z,1004.06
2017-11-04T05:10:32.476Z,1004.01
2017-11-04T05:10:58.592Z,1004.02
2017-11-04T05:11:24.718Z,1004.04
2017-11-04T05:11:50.853Z,1003.94
2017-11-04T05:12:16.970Z,1003.95
2017-11-04T05:12:43.096Z,1003.93
2017-11-04T05:13:09.211Z,1003.96
2017-11-04T05:13:35.339Z,1003.94
2017-11-04T05:14:01.458Z,1003.91
2017-11-04T05:14:27.573Z,1003.92
2017-11-04T05:14:53.698Z,1003.91
2017-11-04T05:15:19.819Z,1003.89
2017-11-04T05:15:45.939Z,1003.89
2017-11-04T05:16:12.058Z,1003.98
2017-11-04T05:16:38.173Z,1003.94
2017-11-04T05:17:04.285Z,1003.95
2017-11-04T05:17:30.413Z,1003.96
2017-11-04T05:17:56.515Z,1003.94
2017-11-04T05:18:22.635Z,1003.93
2017-11-04T05:18:48.758Z,1003.94
2017-11-04T05:19:14.872Z,1003.96
2017-11-04T05:19:41.001Z,1003.93
2017-11-04T05:20:07.125Z,1003.95
2017-11-04T05:20:33.259Z,1003.95
2017-11-04T05:20:59.376Z,1003.96
2017-11-04T05:21:25.489Z,1003.93
2017-11-04T05:21:51.616Z,1003.94
2017-11-04T05:22:17.733Z,1003.9
2017-11-04T05:22:43.850Z,1003.92
2017-11-04T05:23:09.966Z,1003.91
2017-11-04T05:23:36.085Z,1003.93
2017-11-04T05:24:02.198Z,1003.9
2017-11-04T05:24:28.322Z,1003.89
2017-11-04T05:24:54.444Z,1003.87
2017-11-04T05:25:20.561Z,1003.87
2017-11-04T05:25:46.684Z,1003.89
2017-11-04T05:26:12.800Z,1003.88
2017-11-04T05:26:38.919Z,1003.83
2017-11-04T05:27:05.058Z,1003.86
2017-11-04T05:27:31.171Z,1003.88
2017-11-04T05:27:57.295Z,1003.88
2017-11-04T05:28:23.410Z,1003.92
2017-11-04T05:28:49.531Z,1003.88
2017-11-04T05:29:15.643Z,1003.91
2017-11-04T05:29:41.768Z,1003.88
2017-11-04T05:30:07.884Z,1003.89
2017-11-04T05:30:34.008Z,1003.87
2017-11-04T05:31:00.129Z,1003.86
2017-11-04T05:31:26.242Z,1003.88
2017-11-04T05:31:52.366Z,1003.88
2017-11-04T05:32:18.500Z,1003.84
2017-11-04T05:32:44.621Z,1003.91
2017-11-04T05:33:10.742Z,1003.9
2017-11-04T05:33:36.868Z,1003.88
2017-11-04T05:34:02.984Z,1003.88
2017-11-04T05:34:29.105Z,1003.87
2017-11-04T05:34:55.222Z,1003.9
2017-11-04T05:35:21.338Z,1003.88
2017-11-04T05:35:47.463Z,1003.9
2017-11-04T05:36:13.573Z,1003.91
2017-11-04T05:36:39.693Z,1003.92
2017-11-04T05:37:05.828Z,1003.84
2017-11-04T05:37:31.926Z,1003.88
2017-11-04T05:37:58.047Z,1003.88
2017-11-04T05:38:24.169Z,1003.86
2017-11-04T05:38:50.286Z,1003.91
2017-11-04T05:39:16.407Z,1003.9
2017-11-04T05:39:42.523Z,1003.88
2017-11-04T05:40:08.645Z,1003.87
2017-11-04T05:40:34.769Z,1003.9
2017-11-04T05:41:00.889Z,1003.91
2017-11-04T05:41:27.012Z,1003.91
2017-11-04T05:41:53.142Z,1003.92
2017-11-04T05:42:19.264Z,1003.9
2017-11-04T05:42:45.377Z,1003.9
2017-11-04T05:43:11.490Z,1003.94
2017-11-04T05:43:37.614Z,1003.89
2017-11-04T05:44:03.758Z,1003.94
2017-11-04T05:44:29.881Z,1003.91
2017-11-04T05:44:55.989Z,1003.91
2017-11-04T05:45:22.112Z,1003.86
2017-11-04T05:45:48.246Z,1003.85
2017-11-04T05:46:14.352Z,1003.82
2017-11-04T05:46:40.464Z,1003.84
2017-11-04T05:47:06.607Z,1003.84
2017-11-04T05:47:32.728Z,1003.82
2017-11-04T05:47:58.846Z,1003.83
2017-11-04T05:48:24.966Z,1003.81
2017-11-04T05:48:51.081Z,1003.76
2017-11-04T05:49:17.198Z,1003.77
2017-11-04T05:49:43.322Z,1003.78
2017-11-04T05:50:09.439Z,1003.71
2017-11-04T05:50:35.560Z,1003.73
2017-11-04T05:51:01.683Z,1003.71
2017-11-04T05:51:27.799Z,1003.7
2017-11-04T05:51:53.924Z,1003.72
2017-11-04T05:52:20.067Z,1003.67
2017-11-04T05:52:46.179Z,1003.66
2017-11-04T05:53:12.304Z,1003.71
2017-11-04T05:53:38.425Z,1003.65
2017-11-04T05:54:04.537Z,1003.66
2017-11-04T05:54:30.654Z,1003.7
2017-11-04T05:54:56.777Z,1003.68
2017-11-04T05:55:22.892Z,1003.67
2017-11-04T05:55:49.015Z,1003.68
2017-11-04T05:56:15.142Z,1003.66
2017-11-04T05:56:41.253Z,1003.63
2017-11-04T05:57:07.377Z,1003.65
2017-11-04T05:57:33.491Z,1003.65
2017-11-04T05:57:59.607Z,1003.63
2017-11-04T05:58:25.760Z,1003.69
2017-11-04T05:58:51.872Z,1003.67
2017-11-04T05:59:17.996Z,1003.66
2017-11-04T05:59:44.111Z,1003.69
2017-11-04T06:00:10.238Z,1003.67
2017-11-04T06:00:36.352Z,1003.68
2017-11-04T06:01:02.478Z,1003.66
2017-11-04T06:01:28.602Z,1003.71
2017-11-04T06:01:54.715Z,1003.71
2017-11-04T06:02:20.832Z,1003.68
2017-11-04T06:02:46.949Z,1003.7
2017-11-04T06:03:13.074Z,1003.7
2017-11-04T06:03:39.187Z,1003.69
2017-11-04T06:04:05.314Z,1003.69
2017-11-04T06:04:31.432Z,1003.68
2017-11-04T06:04:57.574Z,1003.71
2017-11-04T06:05:23.696Z,1003.68
2017-11-04T06:05:49.813Z,1003.73
2017-11-04T06:06:15.939Z,1003.7
2017-11-04T06:06:42.056Z,1003.73
2017-11-04T06:07:08.168Z,1003.71
2017-11-04T06:07:34.293Z,1003.71
2017-11-04T06:08:00.411Z,1003.69
2017-11-04T06:08:26.531Z,1003.69
2017-11-04T06:08:52.646Z,1003.66
2017-11-04T06:09:18.764Z,1003.67
2017-11-04T06:09:44.886Z,1003.65
2017-11-04T06:10:11.027Z,1003.68
2017-11-04T06:10:37.142Z,1003.67
2017-11-04T06:11:03.269Z,1003.67
2017-11-04T06:11:29.384Z,1003.64
2017-11-04T06:11:55.502Z,1003.67
2017-11-04T06:12:21.628Z,1003.67
2017-11-04T06:12:47.767Z,1003.66
2017-11-04T06:13:13.880Z,1003.63
2017-11-04T06:13:39.999Z,1003.66
2017-11-04T06:14:06.122Z,1003.63
2017-11-04T06:14:32.237Z,1003.65
2017-11-04T06:14:58.358Z,1003.64
2017-11-04T06:15:24.479Z,1003.63
2017-11-04T06:15:50.599Z,1003.63
2017-11-04T06:16:16.720Z,1003.57
2017-11-04T06:16:42.836Z,1003.6
2017-11-04T06:17:08.956Z,1003.63
2017-11-04T06:17:35.071Z,1003.63
2017-11-04T06:18:01.197Z,1003.62
2017-11-04T06:18:27.332Z,1003.63
2017-11-04T06:18:53.478Z,1003.59
2017-11-04T06:19:19.569Z,1003.59
2017-11-04T06:19:45.690Z,1003.61
2017-11-04T06:20:11.807Z,1003.62
2017-11-04T06:20:37.927Z,1003.54
2017-11-04T06:21:04.040Z,1003.54
2017-11-04T06:21:30.153Z,1003.53
2017-11-04T06:21:56.268Z,1003.47
2017-11-04T06:22:22.394Z,1003.51
2017-11-04T06:22:48.509Z,1003.52
2017-11-04T06:23:14.638Z,1003.51
2017-11-04T06:23:40.778Z,1003.54
2017-11-04T06:24:06.901Z,1003.54
2017-11-04T06:24:33.024Z,1003.55
2017-11-04T06:24:59.127Z,1003.52
2017-11-04T06:25:25.253Z,1003.52
2017-11-04T06:25:51.376Z,1003.52
2017-11-04T06:26:17.497Z,1003.5
2017-11-04T06:26:43.631Z,1003.51
2017-11-04T06:27:09.747Z,1003.51
2017-11-04T06:27:35.886Z,1003.52
2017-11-04T06:28:02.000Z,1003.51
2017-11-04T06:28:28.117Z,1003.55
2017-11-04T06:28:54.235Z,1003.49
2017-11-04T06:29:20.357Z,1003.51
2017-11-04T06:29:46.471Z,1003.5
2017-11-04T06:30:12.588Z,1003.51
2017-11-04T06:30:38.727Z,1003.52
2017-11-04T06:31:04.836Z,1003.52
2017-11-04T06:31:30.950Z,1003.48
2017-11-04T06:31:57.071Z,1003.51
2017-11-04T06:32:23.203Z,1003.5
2017-11-04T06:32:49.309Z,1003.5
2017-11-04T06:33:15.428Z,1003.5
2017-11-04T06:33:41.552Z,1003.52
2017-11-04T06:34:07.666Z,1003.48
2017-11-04T06:34:33.790Z,1003.46
2017-11-04T06:34:59.909Z,1003.46
2017-11-04T06:35:26.023Z,1003.48
2017-11-04T06:35:52.142Z,1003.47
2017-11-04T06:36:18.260Z,1003.49
2017-11-04T06:36:44.381Z,1003.52
2017-11-04T06:37:10.500Z,1003.5
2017-11-04T06:37:36.622Z,1003.49
2017-11-04T06:38:02.740Z,1003.45
2017-11-04T06:38:28.868Z,1003.46
2017-11-04T06:38:54.985Z,1003.46
2017-11-04T06:39:21.107Z,1003.44
2017-11-04T06:39:47.226Z,1003.44
2017-11-04T06:40:13.348Z,1003.49
2017-11-04T06:40:39.474Z,1003.5
2017-11-04T06:41:05.588Z,1003.48
2017-11-04T06:41:31.708Z,1003.5
2017-11-04T06:41:57.829Z,1003.45
2017-11-04T06:42:23.955Z,1003.51
2017-11-04T06:42:50.074Z,1003.46
2017-11-04T06:43:16.192Z,1003.42
2017-11-04T06:43:42.308Z,1003.44
2017-11-04T06:44:08.423Z,1003.49
2017-11-04T06:44:34.547Z,1003.44
2017-11-04T06:45:00.670Z,1003.46
2017-11-04T06:45:26.779Z,1003.45
2017-11-04T06:45:52.904Z,1003.42
2017-11-04T06:46:19.026Z,1003.43
2017-11-04T06:46:45.151Z,1003.44
2017-11-04T06:47:11.274Z,1003.43
2017-11-04T06:47:37.393Z,1003.42
2017-11-04T06:48:03.508Z,1003.41
2017-11-04T06:48:29.630Z,1003.44
2017-11-04T06:48:55.745Z,1003.42
2017-11-04T06:49:21.875Z,1003.41
2017-11-04T06:49:47.987Z,1003.42
2017-11-04T06:50:14.104Z,1003.42
2017-11-04T06:50:40.253Z,1003.42
2017-11-04T06:51:06.374Z,1003.42
2017-11-04T06:51:32.494Z,1003.42
2017-11-04T06:51:58.614Z,1003.41
2017-11-04T06:52:24.726Z,1003.4
2017-11-04T06:52:50.842Z,1003.4
2017-11-04T06:53:16.970Z,1003.39
2017-11-04T06:53:43.081Z,1003.39
2017-11-04T06:54:09.196Z,1003.36
2017-11-04T06:54:35.319Z,1003.37
2017-11-04T06:55:01.442Z,1003.33
2017-11-04T06:55:27.564Z,1003.36
2017-11-04T06:55:53.681Z,1003.35
2017-11-04T06:56:19.803Z,1003.38
2017-11-04T06:56:45.918Z,1003.37
2017-11-04T06:57:12.029Z,1003.36
2017-11-04T06:57:38.148Z,1003.39
2017-11-04T06:58:04.269Z,1003.33
2017-11-04T06:58:30.398Z,1003.35
2017-11-04T06:58:56.511Z,1003.4
2017-11-04T06:59:22.636Z,1003.39
2017-11-04T06:59:48.755Z,1003.35
2017-11-04T07:00:14.876Z,1003.41
2017-11-04T07:00:40.999Z,1003.41
2017-11-04T07:01:07.108Z,1003.4
2017-11-04T07:01:33.232Z,1003.38
2017-11-04T07:01:59.366Z,1003.36
2017-11-04T07:02:25.488Z,1003.34
2017-11-04T07:02:51.616Z,1003.34
2017-11-04T07:03:17.737Z,1003.3
2017-11-04T07:03:43.850Z,1003.28
2017-11-04T07:04:09.977Z,1003.27
2017-11-04T07:04:36.094Z,1003.25
2017-11-04T07:05:02.214Z,1003.25
2017-11-04T07:05:28.331Z,1003.24
2017-11-04T07:05:54.454Z,1003.23
2017-11-04T07:06:20.569Z,1003.21
2017-11-04T07:06:46.691Z,1003.2
2017-11-04T07:07:12.806Z,1003.18
2017-11-04T07:07:38.925Z,1003.17
2017-11-04T07:08:05.071Z,1003.19
2017-11-04T07:08:31.213Z,1003.18
2017-11-04T07:08:57.330Z,1003.16
2017-11-04T07:09:23.451Z,1003.2
2017-11-04T07:09:49.565Z,1003.16
2017-11-04T07:10:15.689Z,1003.15
2017-11-04T07:10:41.802Z,1003.18
2017-11-04T07:11:07.921Z,1003.2
2017-11-04T07:11:34.041Z,1003.2
2017-11-04T07:12:00.162Z,1003.22
2017-11-04T07:12:26.283Z,1003.19
2017-11-04T07:12:52.399Z,1003.2
2017-11-04T07:13:18.524Z,1003.22
2017-11-04T07:13:44.646Z,1003.23
2017-11-04T07:14:10.763Z,1003.23
2017-11-04T07:14:36.874Z,1003.24
2017-11-04T07:15:03.001Z,1003.22
2017-11-04T07:15:29.120Z,1003.24
2017-11-04T07:15:55.238Z,1003.24
2017-11-04T07:16:21.362Z,1003.27
2017-11-04T07:16:47.484Z,1003.24
2017-11-04T07:17:13.606Z,1003.32
2017-11-04T07:17:39.726Z,1003.31
2017-11-04T07:18:05.843Z,1003.32
2017-11-04T07:18:31.966Z,1003.33
2017-11-04T07:18:58.076Z,1003.33
2017-11-04T07:19:24.200Z,1003.36
2017-11-04T07:19:50.324Z,1003.3
2017-11-04T07:20:16.455Z,1003.3
2017-11-04T07:20:42.557Z,1003.29
2017-11-04T07:21:08.671Z,1003.31
2017-11-04T07:21:34.789Z,1003.29
2017-11-04T07:22:00.905Z,1003.29
2017-11-04T07:22:27.026Z,1003.33
2017-11-04T07:22:53.139Z,1003.32
2017-11-04T07:23:19.263Z,1003.35
2017-11-04T07:23:45.384Z,1003.36
2017-11-04T07:24:11.503Z,1003.36
2017-11-04T07:24:37.628Z,1003.4
2017-11-04T07:25:03.752Z,1003.39
2017-11-04T07:25:29.863Z,1003.37
2017-11-04T07:25:55.988Z,1003.34
2017-11-04T07:26:22.107Z,1003.37
2017-11-04T07:26:48.224Z,1003.34
2017-11-04T07:27:14.346Z,1003.29
2017-11-04T07:27:40.466Z,1003.25
2017-11-04T07:28:06.584Z,1003.27
2017-11-04T07:28:32.701Z,1003.28
2017-11-04T07:28:58.826Z,1003.29
2017-11-04T07:29:24.947Z,1003.29
2017-11-04T07:29:51.064Z,1003.28
2017-11-04T07:30:17.182Z,1003.33
2017-11-04T07:30:43.308Z,1003.3
2017-11-04T07:31:09.423Z,1003.25
2017-11-04T07:31:35.547Z,1003.3
2017-11-04T07:32:01.661Z,1003.32
2017-11-04T07:32:27.786Z,1003.32
2017-11-04T07:32:53.907Z,1003.29
2017-11-04T07:33:20.023Z,1003.33
2017-11-04T07:33:46.139Z,1003.28
2017-11-04T07:34:12.266Z,1003.31
2017-11-04T07:34:38.389Z,1003.27
2017-11-04T07:35:04.503Z,1003.29
2017-11-04T07:35:30.627Z,1003.3